Saint Aubin/Jersey Island, United Kingdom
Current Conditions -  °F | °C
As of 9:50 PM on Thursday 18 Dec 2014 (Local Time) from EGJB Reporting Station
Drizzle Drizzle  
Wind Chill: 54°   Ceiling: 600
Heat Index: 54°   Visibility: 4mi
Dew Point: 54°   Wind: 28mph
Humidity: 100%   Direction: 240°WSW
Pressure: 30.06"   Gusts: 39mph
Location:  49.25°N, 2.75°W
Report Text: EGJB 182050Z 24024G34KT 6000 -DZ SCT003 BKN006 12/12 Q1018
Loading
Personal Weather Stations






























Interactive Weather Map New forecast layout! Learn more

10-Day Weather Forecast

Advertisements
Track Severe Weather on mobile